sensor_id;sensor_type;location;lat;lon;timestamp;P1;durP1;ratioP1;P2;durP2;ratioP2
77423;SDS011;66494;47.172;14.678;2023-04-25T00:00:19;1.70;;;1.00;;
77423;SDS011;66494;47.172;14.678;2023-04-25T00:02:20;1.40;;;0.90;;
77423;SDS011;66494;47.172;14.678;2023-04-25T00:03:20;3.45;;;1.30;;
77423;SDS011;66494;47.172;14.678;2023-04-25T00:04:21;1.65;;;0.95;;
77423;SDS011;66494;47.172;14.678;2023-04-25T00:05:21;1.40;;;0.75;;
77423;SDS011;66494;47.172;14.678;2023-04-25T00:06:23;1.85;;;0.80;;
77423;SDS011;66494;47.172;14.678;2023-04-25T00:07:26;1.98;;;1.20;;
77423;SDS011;66494;47.172;14.678;2023-04-25T00:09:27;1.40;;;0.80;;
77423;SDS011;66494;47.172;14.678;2023-04-25T00:10:27;2.22;;;1.17;;
77423;SDS011;66494;47.172;14.678;2023-04-25T00:11:27;3.45;;;1.30;;
77423;SDS011;66494;47.172;14.678;2023-04-25T00:12:27;4.07;;;1.00;;
77423;SDS011;66494;47.172;14.678;2023-04-25T00:13:30;2.85;;;1.15;;
77423;SDS011;66494;47.172;14.678;2023-04-25T00:14:31;2.78;;;1.00;;
77423;SDS011;66494;47.172;14.678;2023-04-25T00:15:34;1.42;;;1.08;;
77423;SDS011;66494;47.172;14.678;2023-04-25T00:16:35;1.52;;;1.02;;
77423;SDS011;66494;47.172;14.678;2023-04-25T00:17:36;5.70;;;1.30;;
77423;SDS011;66494;47.172;14.678;2023-04-25T00:18:38;1.98;;;1.38;;
77423;SDS011;66494;47.172;14.678;2023-04-25T00:19:38;1.52;;;1.20;;
77423;SDS011;66494;47.172;14.678;2023-04-25T00:20:38;2.45;;;1.17;;
77423;SDS011;66494;47.172;14.678;2023-04-25T00:21:38;3.20;;;1.33;;
77423;SDS011;66494;47.172;14.678;2023-04-25T00:22:40;2.55;;;1.55;;
77423;SDS011;66494;47.172;14.678;2023-04-25T00:24:40;1.75;;;0.95;;
77423;SDS011;66494;47.172;14.678;2023-04-25T00:25:41;2.50;;;1.17;;
77423;SDS011;66494;47.172;14.678;2023-04-25T00:26:41;2.85;;;1.13;;
77423;SDS011;66494;47.172;14.678;2023-04-25T00:27:41;3.47;;;1.20;;
77423;SDS011;66494;47.172;14.678;2023-04-25T00:28:41;1.88;;;0.98;;
77423;SDS011;66494;47.172;14.678;2023-04-25T00:29:42;2.47;;;1.27;;
77423;SDS011;66494;47.172;14.678;2023-04-25T00:30:42;2.30;;;1.20;;
77423;SDS011;66494;47.172;14.678;2023-04-25T00:31:43;2.35;;;1.75;;
77423;SDS011;66494;47.172;14.678;2023-04-25T00:32:43;1.70;;;1.20;;
77423;SDS011;66494;47.172;14.678;2023-04-25T00:33:43;2.63;;;1.38;;
77423;SDS011;66494;47.172;14.678;2023-04-25T00:34:43;4.35;;;1.50;;
77423;SDS011;66494;47.172;14.678;2023-04-25T00:35:44;2.45;;;1.30;;
77423;SDS011;66494;47.172;14.678;2023-04-25T00:36:44;2.60;;;1.02;;
77423;SDS011;66494;47.172;14.678;2023-04-25T00:37:44;2.47;;;1.23;;
77423;SDS011;66494;47.172;14.678;2023-04-25T00:38:45;1.52;;;1.02;;
77423;SDS011;66494;47.172;14.678;2023-04-25T00:39:45;1.33;;;0.93;;
77423;SDS011;66494;47.172;14.678;2023-04-25T00:40:45;2.20;;;0.88;;
77423;SDS011;66494;47.172;14.678;2023-04-25T00:41:46;3.55;;;1.02;;
77423;SDS011;66494;47.172;14.678;2023-04-25T00:42:46;1.52;;;0.95;;
77423;SDS011;66494;47.172;14.678;2023-04-25T00:43:47;3.17;;;2.15;;
77423;SDS011;66494;47.172;14.678;2023-04-25T00:44:48;2.67;;;0.70;;
77423;SDS011;66494;47.172;14.678;2023-04-25T00:45:48;1.83;;;1.20;;
77423;SDS011;66494;47.172;14.678;2023-04-25T00:46:50;1.95;;;0.93;;
77423;SDS011;66494;47.172;14.678;2023-04-25T00:48:51;2.28;;;1.13;;
77423;SDS011;66494;47.172;14.678;2023-04-25T00:49:51;2.28;;;1.00;;
77423;SDS011;66494;47.172;14.678;2023-04-25T00:50:53;2.13;;;1.00;;
77423;SDS011;66494;47.172;14.678;2023-04-25T00:51:54;2.38;;;1.15;;
77423;SDS011;66494;47.172;14.678;2023-04-25T00:53:55;1.95;;;1.08;;
77423;SDS011;66494;47.172;14.678;2023-04-25T00:54:55;1.77;;;1.02;;
77423;SDS011;66494;47.172;14.678;2023-04-25T00:55:55;2.95;;;1.17;;
77423;SDS011;66494;47.172;14.678;2023-04-25T00:56:56;4.50;;;1.20;;
77423;SDS011;66494;47.172;14.678;2023-04-25T00:57:57;2.03;;;1.10;;
77423;SDS011;66494;47.172;14.678;2023-04-25T00:58:57;2.00;;;1.15;;
77423;SDS011;66494;47.172;14.678;2023-04-25T00:59:57;2.90;;;1.48;;
77423;SDS011;66494;47.172;14.678;2023-04-25T01:00:58;1.77;;;1.02;;
77423;SDS011;66494;47.172;14.678;2023-04-25T01:01:58;2.03;;;1.30;;
77423;SDS011;66494;47.172;14.678;2023-04-25T01:02:59;1.58;;;1.23;;
77423;SDS011;66494;47.172;14.678;2023-04-25T01:04:00;1.63;;;1.00;;
77423;SDS011;66494;47.172;14.678;2023-04-25T01:05:00;2.00;;;0.80;;
77423;SDS011;66494;47.172;14.678;2023-04-25T01:06:01;1.55;;;1.13;;
77423;SDS011;66494;47.172;14.678;2023-04-25T01:07:02;1.88;;;0.93;;
77423;SDS011;66494;47.172;14.678;2023-04-25T01:08:02;1.75;;;1.17;;
77423;SDS011;66494;47.172;14.678;2023-04-25T01:09:03;2.13;;;1.27;;
77423;SDS011;66494;47.172;14.678;2023-04-25T01:10:05;2.47;;;1.48;;
77423;SDS011;66494;47.172;14.678;2023-04-25T01:11:06;1.60;;;1.20;;
77423;SDS011;66494;47.172;14.678;2023-04-25T01:12:06;3.17;;;1.45;;
77423;SDS011;66494;47.172;14.678;2023-04-25T01:13:06;2.72;;;1.50;;
77423;SDS011;66494;47.172;14.678;2023-04-25T01:14:07;4.07;;;1.63;;
77423;SDS011;66494;47.172;14.678;2023-04-25T01:15:07;2.58;;;1.90;;
77423;SDS011;66494;47.172;14.678;2023-04-25T01:16:07;2.35;;;1.83;;
77423;SDS011;66494;47.172;14.678;2023-04-25T01:17:08;3.22;;;1.52;;
77423;SDS011;66494;47.172;14.678;2023-04-25T01:18:09;2.30;;;1.40;;
77423;SDS011;66494;47.172;14.678;2023-04-25T01:19:10;3.03;;;1.58;;
77423;SDS011;66494;47.172;14.678;2023-04-25T01:20:13;3.35;;;1.30;;
77423;SDS011;66494;47.172;14.678;2023-04-25T01:22:14;2.45;;;1.45;;
77423;SDS011;66494;47.172;14.678;2023-04-25T01:24:15;2.33;;;1.55;;
77423;SDS011;66494;47.172;14.678;2023-04-25T01:26:15;2.92;;;1.83;;
77423;SDS011;66494;47.172;14.678;2023-04-25T01:28:16;3.45;;;1.85;;
77423;SDS011;66494;47.172;14.678;2023-04-25T01:30:16;1.90;;;1.10;;
77423;SDS011;66494;47.172;14.678;2023-04-25T01:31:17;3.03;;;1.77;;
77423;SDS011;66494;47.172;14.678;2023-04-25T01:32:18;5.40;;;1.42;;
77423;SDS011;66494;47.172;14.678;2023-04-25T01:34:18;2.17;;;1.45;;
77423;SDS011;66494;47.172;14.678;2023-04-25T01:35:19;5.35;;;1.92;;
77423;SDS011;66494;47.172;14.678;2023-04-25T01:36:20;2.63;;;1.60;;
77423;SDS011;66494;47.172;14.678;2023-04-25T01:37:20;4.63;;;1.70;;
77423;SDS011;66494;47.172;14.678;2023-04-25T01:38:20;2.60;;;1.35;;
77423;SDS011;66494;47.172;14.678;2023-04-25T01:39:20;5.47;;;1.00;;
77423;SDS011;66494;47.172;14.678;2023-04-25T01:40:21;3.53;;;1.23;;
77423;SDS011;66494;47.172;14.678;2023-04-25T01:41:22;2.80;;;1.73;;
77423;SDS011;66494;47.172;14.678;2023-04-25T01:43:23;2.10;;;1.10;;
77423;SDS011;66494;47.172;14.678;2023-04-25T01:44:23;2.88;;;1.90;;
77423;SDS011;66494;47.172;14.678;2023-04-25T01:45:24;1.52;;;1.42;;
77423;SDS011;66494;47.172;14.678;2023-04-25T01:46:24;2.90;;;1.20;;
77423;SDS011;66494;47.172;14.678;2023-04-25T01:47:24;4.15;;;1.50;;
77423;SDS011;66494;47.172;14.678;2023-04-25T01:48:24;3.00;;;1.30;;
77423;SDS011;66494;47.172;14.678;2023-04-25T01:50:25;2.70;;;1.20;;
77423;SDS011;66494;47.172;14.678;2023-04-25T01:52:25;2.13;;;0.98;;
77423;SDS011;66494;47.172;14.678;2023-04-25T01:54:26;2.55;;;1.00;;
77423;SDS011;66494;47.172;14.678;2023-04-25T01:55:26;1.77;;;1.13;;
77423;SDS011;66494;47.172;14.678;2023-04-25T01:56:29;2.10;;;1.30;;
77423;SDS011;66494;47.172;14.678;2023-04-25T01:57:30;2.15;;;1.23;;
77423;SDS011;66494;47.172;14.678;2023-04-25T01:59:30;2.97;;;1.10;;
77423;SDS011;66494;47.172;14.678;2023-04-25T02:01:31;3.15;;;0.90;;
77423;SDS011;66494;47.172;14.678;2023-04-25T02:02:31;2.03;;;1.23;;
77423;SDS011;66494;47.172;14.678;2023-04-25T02:03:31;2.58;;;1.38;;
77423;SDS011;66494;47.172;14.678;2023-04-25T02:04:32;2.60;;;1.10;;
77423;SDS011;66494;47.172;14.678;2023-04-25T02:05:35;5.95;;;1.45;;
77423;SDS011;66494;47.172;14.678;2023-04-25T02:06:36;2.22;;;1.48;;
77423;SDS011;66494;47.172;14.678;2023-04-25T02:08:37;2.17;;;1.20;;
77423;SDS011;66494;47.172;14.678;2023-04-25T02:10:38;2.38;;;1.35;;
77423;SDS011;66494;47.172;14.678;2023-04-25T02:11:38;3.33;;;1.70;;
77423;SDS011;66494;47.172;14.678;2023-04-25T02:12:38;6.90;;;1.80;;
77423;SDS011;66494;47.172;14.678;2023-04-25T02:13:38;3.00;;;1.48;;
77423;SDS011;66494;47.172;14.678;2023-04-25T02:14:39;3.78;;;1.50;;
77423;SDS011;66494;47.172;14.678;2023-04-25T02:15:39;4.03;;;2.17;;
77423;SDS011;66494;47.172;14.678;2023-04-25T02:16:41;4.93;;;1.88;;
77423;SDS011;66494;47.172;14.678;2023-04-25T02:17:43;4.70;;;1.58;;
77423;SDS011;66494;47.172;14.678;2023-04-25T02:18:45;3.45;;;1.58;;
77423;SDS011;66494;47.172;14.678;2023-04-25T02:19:45;3.90;;;2.17;;
77423;SDS011;66494;47.172;14.678;2023-04-25T02:20:45;2.80;;;1.42;;
77423;SDS011;66494;47.172;14.678;2023-04-25T02:21:45;2.90;;;1.60;;
77423;SDS011;66494;47.172;14.678;2023-04-25T02:22:46;3.67;;;1.88;;
77423;SDS011;66494;47.172;14.678;2023-04-25T02:23:46;3.95;;;2.03;;
77423;SDS011;66494;47.172;14.678;2023-04-25T02:24:48;5.85;;;2.40;;
77423;SDS011;66494;47.172;14.678;2023-04-25T02:26:49;5.28;;;1.92;;
77423;SDS011;66494;47.172;14.678;2023-04-25T02:28:51;2.97;;;1.80;;
77423;SDS011;66494;47.172;14.678;2023-04-25T02:29:51;3.03;;;2.15;;
77423;SDS011;66494;47.172;14.678;2023-04-25T02:30:52;2.10;;;1.40;;
77423;SDS011;66494;47.172;14.678;2023-04-25T02:31:52;3.10;;;1.88;;
77423;SDS011;66494;47.172;14.678;2023-04-25T02:32:52;5.45;;;2.08;;
77423;SDS011;66494;47.172;14.678;2023-04-25T02:34:52;3.33;;;1.75;;
77423;SDS011;66494;47.172;14.678;2023-04-25T02:36:53;3.37;;;1.77;;
77423;SDS011;66494;47.172;14.678;2023-04-25T02:37:53;3.55;;;1.60;;
77423;SDS011;66494;47.172;14.678;2023-04-25T02:38:54;3.78;;;1.70;;
77423;SDS011;66494;47.172;14.678;2023-04-25T02:39:54;6.95;;;1.92;;
77423;SDS011;66494;47.172;14.678;2023-04-25T02:40:54;3.33;;;2.22;;
77423;SDS011;66494;47.172;14.678;2023-04-25T02:41:54;3.58;;;2.22;;
77423;SDS011;66494;47.172;14.678;2023-04-25T02:42:55;3.63;;;2.28;;
77423;SDS011;66494;47.172;14.678;2023-04-25T02:43:55;4.15;;;2.00;;
77423;SDS011;66494;47.172;14.678;2023-04-25T02:44:55;3.78;;;1.77;;
77423;SDS011;66494;47.172;14.678;2023-04-25T02:46:55;3.80;;;2.00;;
77423;SDS011;66494;47.172;14.678;2023-04-25T02:47:56;4.22;;;2.25;;
77423;SDS011;66494;47.172;14.678;2023-04-25T02:48:56;3.75;;;1.60;;
77423;SDS011;66494;47.172;14.678;2023-04-25T02:49:56;3.67;;;2.25;;
77423;SDS011;66494;47.172;14.678;2023-04-25T02:50:56;2.03;;;1.65;;
77423;SDS011;66494;47.172;14.678;2023-04-25T02:51:57;5.47;;;1.63;;
77423;SDS011;66494;47.172;14.678;2023-04-25T02:53:57;2.67;;;2.25;;
77423;SDS011;66494;47.172;14.678;2023-04-25T02:55:57;2.35;;;1.45;;
77423;SDS011;66494;47.172;14.678;2023-04-25T02:57:58;2.10;;;1.58;;
77423;SDS011;66494;47.172;14.678;2023-04-25T02:58:58;2.90;;;1.48;;
77423;SDS011;66494;47.172;14.678;2023-04-25T02:59:58;2.78;;;1.70;;
77423;SDS011;66494;47.172;14.678;2023-04-25T03:01:59;2.92;;;2.13;;
77423;SDS011;66494;47.172;14.678;2023-04-25T03:02:59;4.47;;;2.33;;
77423;SDS011;66494;47.172;14.678;2023-04-25T03:04:00;3.38;;;2.53;;
77423;SDS011;66494;47.172;14.678;2023-04-25T03:05:00;3.20;;;1.98;;
77423;SDS011;66494;47.172;14.678;2023-04-25T03:07:00;3.45;;;1.50;;
77423;SDS011;66494;47.172;14.678;2023-04-25T03:09:01;4.45;;;1.48;;
77423;SDS011;66494;47.172;14.678;2023-04-25T03:10:01;4.88;;;2.20;;
77423;SDS011;66494;47.172;14.678;2023-04-25T03:11:02;4.15;;;2.55;;
77423;SDS011;66494;47.172;14.678;2023-04-25T03:12:02;4.35;;;2.53;;
77423;SDS011;66494;47.172;14.678;2023-04-25T03:13:02;4.60;;;1.90;;
77423;SDS011;66494;47.172;14.678;2023-04-25T03:14:03;4.80;;;1.95;;
77423;SDS011;66494;47.172;14.678;2023-04-25T03:15:03;2.40;;;1.58;;
77423;SDS011;66494;47.172;14.678;2023-04-25T03:17:04;2.83;;;1.27;;
77423;SDS011;66494;47.172;14.678;2023-04-25T03:18:04;2.58;;;1.27;;
77423;SDS011;66494;47.172;14.678;2023-04-25T03:19:04;4.90;;;1.70;;
77423;SDS011;66494;47.172;14.678;2023-04-25T03:20:05;3.67;;;1.75;;
77423;SDS011;66494;47.172;14.678;2023-04-25T03:21:05;4.03;;;1.75;;
77423;SDS011;66494;47.172;14.678;2023-04-25T03:22:05;3.60;;;1.10;;
77423;SDS011;66494;47.172;14.678;2023-04-25T03:23:06;4.50;;;1.60;;
77423;SDS011;66494;47.172;14.678;2023-04-25T03:24:06;6.25;;;2.60;;
77423;SDS011;66494;47.172;14.678;2023-04-25T03:25:06;10.23;;;2.90;;
77423;SDS011;66494;47.172;14.678;2023-04-25T03:27:07;3.88;;;2.67;;
77423;SDS011;66494;47.172;14.678;2023-04-25T03:28:07;7.72;;;3.10;;
77423;SDS011;66494;47.172;14.678;2023-04-25T03:29:07;3.63;;;2.33;;
77423;SDS011;66494;47.172;14.678;2023-04-25T03:31:08;3.22;;;2.25;;
77423;SDS011;66494;47.172;14.678;2023-04-25T03:32:08;5.13;;;2.22;;
77423;SDS011;66494;47.172;14.678;2023-04-25T03:33:09;3.15;;;1.80;;
77423;SDS011;66494;47.172;14.678;2023-04-25T03:34:09;3.53;;;1.95;;
77423;SDS011;66494;47.172;14.678;2023-04-25T03:35:09;2.75;;;1.58;;
77423;SDS011;66494;47.172;14.678;2023-04-25T03:36:10;2.38;;;1.48;;
77423;SDS011;66494;47.172;14.678;2023-04-25T03:37:10;1.88;;;1.02;;
77423;SDS011;66494;47.172;14.678;2023-04-25T03:38:10;5.43;;;1.55;;
77423;SDS011;66494;47.172;14.678;2023-04-25T03:40:11;4.20;;;1.35;;
77423;SDS011;66494;47.172;14.678;2023-04-25T03:41:11;1.45;;;1.20;;
77423;SDS011;66494;47.172;14.678;2023-04-25T03:43:11;2.58;;;1.40;;
77423;SDS011;66494;47.172;14.678;2023-04-25T03:44:12;1.73;;;0.93;;
77423;SDS011;66494;47.172;14.678;2023-04-25T03:45:12;2.85;;;1.52;;
77423;SDS011;66494;47.172;14.678;2023-04-25T03:46:12;4.03;;;1.55;;
77423;SDS011;66494;47.172;14.678;2023-04-25T03:47:12;4.20;;;2.30;;
77423;SDS011;66494;47.172;14.678;2023-04-25T03:48:13;3.80;;;2.35;;
77423;SDS011;66494;47.172;14.678;2023-04-25T03:49:13;3.60;;;2.58;;
77423;SDS011;66494;47.172;14.678;2023-04-25T03:50:13;3.55;;;1.63;;
77423;SDS011;66494;47.172;14.678;2023-04-25T03:51:13;2.45;;;1.55;;
77423;SDS011;66494;47.172;14.678;2023-04-25T03:53:14;2.45;;;1.63;;
77423;SDS011;66494;47.172;14.678;2023-04-25T03:54:14;2.60;;;1.63;;
77423;SDS011;66494;47.172;14.678;2023-04-25T03:56:14;2.85;;;1.85;;
77423;SDS011;66494;47.172;14.678;2023-04-25T03:57:15;4.00;;;1.75;;
77423;SDS011;66494;47.172;14.678;2023-04-25T03:58:15;3.03;;;1.67;;
77423;SDS011;66494;47.172;14.678;2023-04-25T03:59:15;2.90;;;1.90;;
77423;SDS011;66494;47.172;14.678;2023-04-25T04:00:15;4.03;;;1.73;;
77423;SDS011;66494;47.172;14.678;2023-04-25T04:01:16;5.70;;;1.85;;
77423;SDS011;66494;47.172;14.678;2023-04-25T04:02:17;2.90;;;1.20;;
77423;SDS011;66494;47.172;14.678;2023-04-25T04:04:17;3.43;;;1.30;;
77423;SDS011;66494;47.172;14.678;2023-04-25T04:05:18;1.92;;;1.17;;
77423;SDS011;66494;47.172;14.678;2023-04-25T04:07:20;1.90;;;1.00;;
77423;SDS011;66494;47.172;14.678;2023-04-25T04:08:20;2.85;;;1.45;;
77423;SDS011;66494;47.172;14.678;2023-04-25T04:09:21;3.05;;;1.70;;
77423;SDS011;66494;47.172;14.678;2023-04-25T04:11:21;3.38;;;1.45;;
77423;SDS011;66494;47.172;14.678;2023-04-25T04:13:21;3.80;;;2.08;;
77423;SDS011;66494;47.172;14.678;2023-04-25T04:15:22;3.88;;;1.88;;
77423;SDS011;66494;47.172;14.678;2023-04-25T04:17:22;7.45;;;2.35;;
77423;SDS011;66494;47.172;14.678;2023-04-25T04:18:22;9.00;;;2.33;;
77423;SDS011;66494;47.172;14.678;2023-04-25T04:19:23;6.43;;;1.85;;
77423;SDS011;66494;47.172;14.678;2023-04-25T04:20:23;3.25;;;1.65;;
77423;SDS011;66494;47.172;14.678;2023-04-25T04:21:23;6.28;;;1.40;;
77423;SDS011;66494;47.172;14.678;2023-04-25T04:23:24;3.10;;;1.40;;
77423;SDS011;66494;47.172;14.678;2023-04-25T04:24:24;4.78;;;2.88;;
77423;SDS011;66494;47.172;14.678;2023-04-25T04:26:24;5.72;;;2.65;;
77423;SDS011;66494;47.172;14.678;2023-04-25T04:28:26;5.07;;;2.50;;
77423;SDS011;66494;47.172;14.678;2023-04-25T04:30:27;5.15;;;2.60;;
77423;SDS011;66494;47.172;14.678;2023-04-25T04:31:30;5.75;;;2.63;;
77423;SDS011;66494;47.172;14.678;2023-04-25T04:32:32;5.43;;;2.90;;
77423;SDS011;66494;47.172;14.678;2023-04-25T04:33:34;3.85;;;2.13;;
77423;SDS011;66494;47.172;14.678;2023-04-25T04:34:34;5.85;;;2.97;;
77423;SDS011;66494;47.172;14.678;2023-04-25T04:35:35;5.88;;;2.83;;
77423;SDS011;66494;47.172;14.678;2023-04-25T04:36:35;6.40;;;3.65;;
77423;SDS011;66494;47.172;14.678;2023-04-25T04:38:36;6.25;;;3.47;;
77423;SDS011;66494;47.172;14.678;2023-04-25T04:39:37;6.53;;;3.75;;
77423;SDS011;66494;47.172;14.678;2023-04-25T04:41:37;5.75;;;2.70;;
77423;SDS011;66494;47.172;14.678;2023-04-25T04:42:38;5.57;;;3.25;;
77423;SDS011;66494;47.172;14.678;2023-04-25T04:43:38;9.32;;;4.20;;
77423;SDS011;66494;47.172;14.678;2023-04-25T04:44:39;6.95;;;2.80;;
77423;SDS011;66494;47.172;14.678;2023-04-25T04:45:39;6.88;;;3.25;;
77423;SDS011;66494;47.172;14.678;2023-04-25T04:46:40;3.97;;;2.08;;
77423;SDS011;66494;47.172;14.678;2023-04-25T04:47:44;4.93;;;2.83;;
77423;SDS011;66494;47.172;14.678;2023-04-25T04:49:45;3.92;;;2.05;;
77423;SDS011;66494;47.172;14.678;2023-04-25T04:50:45;8.43;;;2.72;;
77423;SDS011;66494;47.172;14.678;2023-04-25T04:52:46;5.10;;;2.13;;
77423;SDS011;66494;47.172;14.678;2023-04-25T04:53:47;7.03;;;2.67;;
77423;SDS011;66494;47.172;14.678;2023-04-25T04:54:47;3.20;;;2.00;;
77423;SDS011;66494;47.172;14.678;2023-04-25T04:55:47;5.18;;;2.35;;
77423;SDS011;66494;47.172;14.678;2023-04-25T04:56:47;7.18;;;2.90;;
77423;SDS011;66494;47.172;14.678;2023-04-25T04:58:48;5.40;;;2.97;;
77423;SDS011;66494;47.172;14.678;2023-04-25T04:59:49;6.00;;;3.10;;
77423;SDS011;66494;47.172;14.678;2023-04-25T05:00:50;6.85;;;3.40;;
77423;SDS011;66494;47.172;14.678;2023-04-25T05:02:50;7.38;;;3.22;;
77423;SDS011;66494;47.172;14.678;2023-04-25T05:04:51;9.38;;;3.10;;
77423;SDS011;66494;47.172;14.678;2023-04-25T05:06:52;5.27;;;2.17;;
77423;SDS011;66494;47.172;14.678;2023-04-25T05:07:52;4.57;;;2.83;;
77423;SDS011;66494;47.172;14.678;2023-04-25T05:08:52;9.07;;;3.15;;
77423;SDS011;66494;47.172;14.678;2023-04-25T05:09:52;8.68;;;3.75;;
77423;SDS011;66494;47.172;14.678;2023-04-25T05:10:53;8.38;;;4.13;;
77423;SDS011;66494;47.172;14.678;2023-04-25T05:11:53;5.13;;;2.13;;
77423;SDS011;66494;47.172;14.678;2023-04-25T05:13:53;5.35;;;2.42;;
77423;SDS011;66494;47.172;14.678;2023-04-25T05:14:54;6.47;;;2.20;;
77423;SDS011;66494;47.172;14.678;2023-04-25T05:15:54;3.80;;;2.00;;
77423;SDS011;66494;47.172;14.678;2023-04-25T05:16:54;5.03;;;2.45;;
77423;SDS011;66494;47.172;14.678;2023-04-25T05:17:55;5.00;;;2.38;;
77423;SDS011;66494;47.172;14.678;2023-04-25T05:18:55;2.72;;;1.85;;
77423;SDS011;66494;47.172;14.678;2023-04-25T05:19:55;5.13;;;2.20;;
77423;SDS011;66494;47.172;14.678;2023-04-25T05:20:55;3.42;;;1.95;;
77423;SDS011;66494;47.172;14.678;2023-04-25T05:21:56;6.40;;;1.90;;
77423;SDS011;66494;47.172;14.678;2023-04-25T05:22:56;3.25;;;1.90;;
77423;SDS011;66494;47.172;14.678;2023-04-25T05:23:56;5.82;;;2.05;;
77423;SDS011;66494;47.172;14.678;2023-04-25T05:24:56;4.60;;;1.58;;
77423;SDS011;66494;47.172;14.678;2023-04-25T05:25:56;5.50;;;2.20;;
77423;SDS011;66494;47.172;14.678;2023-04-25T05:26:57;2.97;;;1.38;;
77423;SDS011;66494;47.172;14.678;2023-04-25T05:27:57;8.63;;;1.50;;
77423;SDS011;66494;47.172;14.678;2023-04-25T05:28:58;2.58;;;1.30;;
77423;SDS011;66494;47.172;14.678;2023-04-25T05:29:58;2.08;;;1.27;;
77423;SDS011;66494;47.172;14.678;2023-04-25T05:30:58;3.33;;;1.42;;
77423;SDS011;66494;47.172;14.678;2023-04-25T05:31:59;2.65;;;1.33;;
77423;SDS011;66494;47.172;14.678;2023-04-25T05:32:59;5.10;;;1.25;;
77423;SDS011;66494;47.172;14.678;2023-04-25T05:33:59;3.28;;;1.60;;
77423;SDS011;66494;47.172;14.678;2023-04-25T05:35:00;5.45;;;1.58;;
77423;SDS011;66494;47.172;14.678;2023-04-25T05:36:00;3.65;;;1.40;;
77423;SDS011;66494;47.172;14.678;2023-04-25T05:37:00;1.70;;;0.98;;
77423;SDS011;66494;47.172;14.678;2023-04-25T05:38:00;1.63;;;0.88;;
77423;SDS011;66494;47.172;14.678;2023-04-25T05:40:01;4.65;;;1.63;;
77423;SDS011;66494;47.172;14.678;2023-04-25T05:41:06;3.58;;;1.40;;
77423;SDS011;66494;47.172;14.678;2023-04-25T05:43:07;3.08;;;1.73;;
77423;SDS011;66494;47.172;14.678;2023-04-25T05:44:07;6.82;;;1.63;;
77423;SDS011;66494;47.172;14.678;2023-04-25T05:45:08;3.50;;;2.35;;
77423;SDS011;66494;47.172;14.678;2023-04-25T05:46:08;3.80;;;2.60;;
77423;SDS011;66494;47.172;14.678;2023-04-25T05:47:09;4.78;;;2.72;;
77423;SDS011;66494;47.172;14.678;2023-04-25T05:48:09;6.13;;;2.67;;
77423;SDS011;66494;47.172;14.678;2023-04-25T05:49:09;4.47;;;1.75;;
77423;SDS011;66494;47.172;14.678;2023-04-25T05:50:10;4.22;;;2.08;;
77423;SDS011;66494;47.172;14.678;2023-04-25T05:51:10;3.13;;;2.15;;
77423;SDS011;66494;47.172;14.678;2023-04-25T05:52:10;7.45;;;2.03;;
77423;SDS011;66494;47.172;14.678;2023-04-25T05:53:10;3.40;;;1.88;;
77423;SDS011;66494;47.172;14.678;2023-04-25T05:54:11;1.75;;;1.00;;
77423;SDS011;66494;47.172;14.678;2023-04-25T05:55:11;4.93;;;1.48;;
77423;SDS011;66494;47.172;14.678;2023-04-25T05:56:11;4.30;;;1.90;;
77423;SDS011;66494;47.172;14.678;2023-04-25T05:57:24;2.90;;;1.90;;
77423;SDS011;66494;47.172;14.678;2023-04-25T05:58:25;5.97;;;1.40;;
77423;SDS011;66494;47.172;14.678;2023-04-25T05:59:25;2.35;;;1.30;;
77423;SDS011;66494;47.172;14.678;2023-04-25T06:00:25;2.60;;;0.90;;
77423;SDS011;66494;47.172;14.678;2023-04-25T06:01:26;3.03;;;1.25;;
77423;SDS011;66494;47.172;14.678;2023-04-25T06:02:26;1.77;;;1.05;;
77423;SDS011;66494;47.172;14.678;2023-04-25T06:03:26;1.90;;;1.20;;
77423;SDS011;66494;47.172;14.678;2023-04-25T06:04:27;3.38;;;1.00;;
77423;SDS011;66494;47.172;14.678;2023-04-25T06:05:27;2.28;;;1.55;;
77423;SDS011;66494;47.172;14.678;2023-04-25T06:06:27;3.53;;;2.20;;
77423;SDS011;66494;47.172;14.678;2023-04-25T06:07:27;3.55;;;2.45;;
77423;SDS011;66494;47.172;14.678;2023-04-25T06:08:27;4.90;;;1.98;;
77423;SDS011;66494;47.172;14.678;2023-04-25T06:09:28;2.60;;;1.60;;
77423;SDS011;66494;47.172;14.678;2023-04-25T06:10:28;4.45;;;2.03;;
77423;SDS011;66494;47.172;14.678;2023-04-25T06:11:28;2.92;;;1.48;;
77423;SDS011;66494;47.172;14.678;2023-04-25T06:12:28;2.25;;;1.42;;
77423;SDS011;66494;47.172;14.678;2023-04-25T06:13:28;6.07;;;1.90;;
77423;SDS011;66494;47.172;14.678;2023-04-25T06:14:29;7.45;;;1.95;;
77423;SDS011;66494;47.172;14.678;2023-04-25T06:15:29;6.60;;;2.00;;
77423;SDS011;66494;47.172;14.678;2023-04-25T06:16:29;3.67;;;1.88;;
77423;SDS011;66494;47.172;14.678;2023-04-25T06:17:30;1.90;;;1.33;;
77423;SDS011;66494;47.172;14.678;2023-04-25T06:18:30;7.57;;;1.63;;
77423;SDS011;66494;47.172;14.678;2023-04-25T06:19:30;2.95;;;1.73;;
77423;SDS011;66494;47.172;14.678;2023-04-25T06:20:30;5.03;;;1.75;;
77423;SDS011;66494;47.172;14.678;2023-04-25T06:21:31;3.80;;;1.73;;
77423;SDS011;66494;47.172;14.678;2023-04-25T06:22:31;5.50;;;1.80;;
77423;SDS011;66494;47.172;14.678;2023-04-25T06:23:31;1.83;;;1.20;;
77423;SDS011;66494;47.172;14.678;2023-04-25T06:24:31;4.68;;;1.20;;
77423;SDS011;66494;47.172;14.678;2023-04-25T06:25:32;5.18;;;1.48;;
77423;SDS011;66494;47.172;14.678;2023-04-25T06:26:32;3.75;;;1.70;;
77423;SDS011;66494;47.172;14.678;2023-04-25T06:27:33;2.33;;;1.48;;
77423;SDS011;66494;47.172;14.678;2023-04-25T06:28:33;4.43;;;2.10;;
77423;SDS011;66494;47.172;14.678;2023-04-25T06:29:33;2.35;;;1.48;;
77423;SDS011;66494;47.172;14.678;2023-04-25T06:30:33;2.10;;;1.70;;
77423;SDS011;66494;47.172;14.678;2023-04-25T06:31:34;4.22;;;1.83;;
77423;SDS011;66494;47.172;14.678;2023-04-25T06:32:34;2.97;;;1.77;;
77423;SDS011;66494;47.172;14.678;2023-04-25T06:33:35;7.18;;;1.88;;
77423;SDS011;66494;47.172;14.678;2023-04-25T06:34:35;2.55;;;1.27;;
77423;SDS011;66494;47.172;14.678;2023-04-25T06:35:35;5.97;;;1.42;;
77423;SDS011;66494;47.172;14.678;2023-04-25T06:36:35;1.83;;;1.20;;
77423;SDS011;66494;47.172;14.678;2023-04-25T06:37:36;3.55;;;1.55;;
77423;SDS011;66494;47.172;14.678;2023-04-25T06:38:36;2.97;;;1.27;;
77423;SDS011;66494;47.172;14.678;2023-04-25T06:39:36;3.85;;;1.77;;
77423;SDS011;66494;47.172;14.678;2023-04-25T06:40:36;3.20;;;1.40;;
77423;SDS011;66494;47.172;14.678;2023-04-25T06:41:37;4.50;;;1.38;;
77423;SDS011;66494;47.172;14.678;2023-04-25T06:42:37;3.50;;;1.50;;
77423;SDS011;66494;47.172;14.678;2023-04-25T06:43:37;1.98;;;1.33;;
77423;SDS011;66494;47.172;14.678;2023-04-25T06:44:37;2.97;;;1.73;;
77423;SDS011;66494;47.172;14.678;2023-04-25T06:45:38;1.85;;;1.38;;
77423;SDS011;66494;47.172;14.678;2023-04-25T06:46:38;4.00;;;1.33;;
77423;SDS011;66494;47.172;14.678;2023-04-25T06:47:39;2.72;;;1.27;;
77423;SDS011;66494;47.172;14.678;2023-04-25T06:48:39;2.17;;;1.70;;
77423;SDS011;66494;47.172;14.678;2023-04-25T06:49:39;2.75;;;1.65;;
77423;SDS011;66494;47.172;14.678;2023-04-25T06:50:39;5.47;;;3.20;;
77423;SDS011;66494;47.172;14.678;2023-04-25T06:51:40;3.78;;;2.75;;
77423;SDS011;66494;47.172;14.678;2023-04-25T06:52:40;5.43;;;1.73;;
77423;SDS011;66494;47.172;14.678;2023-04-25T06:53:41;3.83;;;1.25;;
77423;SDS011;66494;47.172;14.678;2023-04-25T06:54:41;5.15;;;1.33;;
77423;SDS011;66494;47.172;14.678;2023-04-25T06:55:41;3.80;;;1.35;;
77423;SDS011;66494;47.172;14.678;2023-04-25T06:56:41;4.40;;;1.48;;